Time;durP1;ratioP1;P1;durP2;ratioP2;P2;SDS_P1;SDS_P2;PMS_P1;PMS_P2;Temp;Humidity;BMP_temperature;BMP_pressure;BME280_temperature;BME280_humidity;BME280_pressure;Samples;Min_cycle;Max_cycle;Signal;HPM_P1;HPM_P2
2021/10/06 00:01:56;;;;;;;;;;;18.70;99.90;;;;;;5075933;28;19956;-77
2021/10/06 00:04:21;;;;;;;;;;;18.70;99.90;;;;;;5079094;28;19919;-76
2021/10/06 00:07:03;;;;;;;;;;;18.80;99.90;;;;;;5081090;28;20398;-77
2021/10/06 00:09:29;;;;;;;;;;;18.80;99.90;;;;;;5081800;28;19909;-79
2021/10/06 00:11:55;;;;;;;;;;;18.80;99.90;;;;;;5077722;28;19924;-78
2021/10/06 00:14:20;;;;;;;;;;;18.80;99.90;;;;;;5075594;28;19936;-76
2021/10/06 00:16:46;;;;;;;;;;;18.80;99.90;;;;;;5074079;28;19947;-78
2021/10/06 00:19:12;;;;;;;;;;;18.80;99.90;;;;;;5078152;28;20406;-77
2021/10/06 00:21:41;;;;;;;;;;;18.80;99.90;;;;;;5082621;28;19912;-78
2021/10/06 00:24:07;;;;;;;;;;;18.80;99.90;;;;;;5075834;28;19931;-77
2021/10/06 00:26:32;;;;;;;;;;;18.90;99.90;;;;;;5083803;28;20011;-77
2021/10/06 00:28:58;;;;;;;;;;;18.90;99.90;;;;;;5076137;28;19913;-77
2021/10/06 00:31:24;;;;;;;;;;;18.90;99.90;;;;;;5074706;28;20383;-77
2021/10/06 00:33:50;;;;;;;;;;;18.90;99.90;;;;;;5079077;28;19961;-79
2021/10/06 00:36:21;;;;;;;;;;;18.90;99.90;;;;;;5074462;28;20289;-78
2021/10/06 00:38:47;;;;;;;;;;;18.80;99.90;;;;;;5074368;28;19912;-77
2021/10/06 00:41:13;;;;;;;;;;;18.80;99.90;;;;;;5079067;28;19920;-77
2021/10/06 00:43:38;;;;;;;;;;;18.80;99.90;;;;;;5077650;28;19942;-76
2021/10/06 00:46:04;;;;;;;;;;;18.80;99.90;;;;;;5080150;28;19938;-76
2021/10/06 00:48:30;;;;;;;;;;;18.80;99.90;;;;;;5073074;28;19919;-77
2021/10/06 00:50:56;;;;;;;;;;;18.80;99.90;;;;;;5073487;28;20369;-76
2021/10/06 00:53:27;;;;;;;;;;;18.80;99.90;;;;;;5078983;28;19913;-77
2021/10/06 00:55:54;;;;;;;;;;;18.80;99.90;;;;;;5074977;28;20282;-78
2021/10/06 00:58:20;;;;;;;;;;;18.70;99.90;;;;;;5072841;28;20332;-78
2021/10/06 01:00:46;;;;;;;;;;;18.70;99.90;;;;;;5072692;28;19912;-78
2021/10/06 01:03:12;;;;;;;;;;;18.60;99.90;;;;;;5072078;28;19934;-79
2021/10/06 01:05:38;;;;;;;;;;;18.70;99.90;;;;;;5075555;28;19913;-78
2021/10/06 01:08:04;;;;;;;;;;;18.60;99.90;;;;;;5074145;28;19913;-78
2021/10/06 01:10:30;;;;;;;;;;;18.60;99.90;;;;;;5074538;28;19982;-78
2021/10/06 01:12:57;;;;;;;;;;;18.70;99.90;;;;;;5078796;28;19919;-76
2021/10/06 01:15:22;;;;;;;;;;;18.70;99.90;;;;;;5079317;28;20458;-77
2021/10/06 01:17:48;;;;;;;;;;;18.70;99.90;;;;;;5074975;28;19916;-77
2021/10/06 01:20:14;;;;;;;;;;;18.70;99.90;;;;;;5074224;28;19955;-78
2021/10/06 01:22:39;;;;;;;;;;;18.70;99.90;;;;;;5073384;28;19916;-76
2021/10/06 01:25:08;;;;;;;;;;;18.60;99.90;;;;;;5074354;28;19913;-79
2021/10/06 01:27:39;;;;;;;;;;;18.60;99.90;;;;;;5076100;28;19916;-77
2021/10/06 01:30:09;;;;;;;;;;;18.60;99.90;;;;;;5072204;28;20239;-77
2021/10/06 01:32:36;;;;;;;;;;;18.60;99.90;;;;;;5071055;28;19912;-78
2021/10/06 01:35:02;;;;;;;;;;;18.70;99.90;;;;;;5073074;28;19912;-77
2021/10/06 01:37:28;;;;;;;;;;;18.60;99.90;;;;;;5071300;28;19995;-77
2021/10/06 01:39:54;;;;;;;;;;;18.60;99.90;;;;;;5073883;28;20343;-77
2021/10/06 01:42:20;;;;;;;;;;;18.70;99.90;;;;;;5073056;28;20390;-77
2021/10/06 01:44:46;;;;;;;;;;;18.60;99.90;;;;;;5072189;28;20012;-77
2021/10/06 01:47:25;;;;;;;;;;;18.60;99.90;;;;;;5076875;28;19978;-77
2021/10/06 01:49:51;;;;;;;;;;;18.70;99.90;;;;;;5074016;28;19909;-77
2021/10/06 01:52:20;;;;;;;;;;;18.70;99.90;;;;;;5073549;28;20267;-77
2021/10/06 01:54:46;;;;;;;;;;;18.70;99.90;;;;;;5073361;28;19987;-78
2021/10/06 01:57:15;;;;;;;;;;;18.80;99.90;;;;;;5073433;28;20021;-78
2021/10/06 01:59:42;;;;;;;;;;;18.80;99.90;;;;;;5076925;28;20304;-77
2021/10/06 02:02:09;;;;;;;;;;;18.80;99.90;;;;;;5069858;28;20011;-78
2021/10/06 02:04:37;;;;;;;;;;;18.80;99.90;;;;;;5083175;28;19916;-77
2021/10/06 02:07:03;;;;;;;;;;;18.80;99.90;;;;;;5075631;28;20293;-77
2021/10/06 02:09:29;;;;;;;;;;;18.80;99.90;;;;;;5071974;28;20341;-77
2021/10/06 02:11:55;;;;;;;;;;;18.80;99.90;;;;;;5075830;28;19959;-77
2021/10/06 02:14:24;;;;;;;;;;;18.80;99.90;;;;;;5073630;28;19976;-77
2021/10/06 02:16:50;;;;;;;;;;;18.70;99.90;;;;;;5071202;28;19927;-77
2021/10/06 02:19:15;;;;;;;;;;;18.60;99.90;;;;;;5070343;28;19912;-77
2021/10/06 02:21:41;;;;;;;;;;;18.70;99.90;;;;;;5074452;28;20416;-78
2021/10/06 02:24:07;;;;;;;;;;;18.60;99.90;;;;;;5073883;28;19939;-78
2021/10/06 02:26:33;;;;;;;;;;;18.60;99.90;;;;;;5073323;28;19927;-78
2021/10/06 02:28:59;;;;;;;;;;;18.70;99.90;;;;;;5071291;28;19919;-80
2021/10/06 02:31:25;;;;;;;;;;;18.70;99.90;;;;;;5078599;28;19912;-77
2021/10/06 02:33:51;;;;;;;;;;;18.60;99.90;;;;;;5071689;28;19913;-77
2021/10/06 02:36:16;;;;;;;;;;;18.70;99.90;;;;;;5072559;28;20007;-79
2021/10/06 02:38:42;;;;;;;;;;;18.60;99.90;;;;;;5069653;28;19913;-77
2021/10/06 02:41:08;;;;;;;;;;;18.60;99.90;;;;;;5073334;28;20002;-77
2021/10/06 02:43:34;;;;;;;;;;;18.60;99.90;;;;;;5073336;28;19935;-77
2021/10/06 02:46:00;;;;;;;;;;;18.60;99.90;;;;;;5073210;28;19955;-77
2021/10/06 02:48:26;;;;;;;;;;;18.60;99.90;;;;;;5074036;28;19980;-78
2021/10/06 02:50:52;;;;;;;;;;;18.50;99.90;;;;;;5074562;28;19948;-77
2021/10/06 02:53:18;;;;;;;;;;;18.50;99.90;;;;;;5077359;28;19916;-77
2021/10/06 02:55:44;;;;;;;;;;;18.50;99.90;;;;;;5073084;28;19944;-77
2021/10/06 02:58:09;;;;;;;;;;;18.60;99.90;;;;;;5075776;28;19924;-77
2021/10/06 03:00:35;;;;;;;;;;;18.60;99.90;;;;;;5072930;28;19912;-77
2021/10/06 03:03:01;;;;;;;;;;;18.60;99.90;;;;;;5077165;28;19920;-77
2021/10/06 03:05:27;;;;;;;;;;;18.60;99.90;;;;;;5073161;28;19916;-77
2021/10/06 03:07:53;;;;;;;;;;;18.60;99.90;;;;;;5076913;28;20301;-77
2021/10/06 03:10:19;;;;;;;;;;;18.70;99.90;;;;;;5076343;28;19948;-78
2021/10/06 03:12:44;;;;;;;;;;;18.60;99.90;;;;;;5082217;28;20393;-78
2021/10/06 03:15:11;;;;;;;;;;;18.60;99.90;;;;;;5077287;28;20006;-78
2021/10/06 03:17:37;;;;;;;;;;;18.60;99.90;;;;;;5077527;28;19912;-77
2021/10/06 03:20:04;;;;;;;;;;;18.70;99.90;;;;;;5075784;28;19919;-77
2021/10/06 03:22:30;;;;;;;;;;;18.70;99.90;;;;;;5077253;28;20404;-77
2021/10/06 03:24:55;;;;;;;;;;;18.70;99.90;;;;;;5091771;28;19921;-78
2021/10/06 03:27:21;;;;;;;;;;;18.80;99.90;;;;;;5079374;28;19917;-78
2021/10/06 03:29:47;;;;;;;;;;;18.70;99.90;;;;;;5077420;28;19909;-77
2021/10/06 03:32:12;;;;;;;;;;;18.70;99.90;;;;;;5081319;28;19956;-78
2021/10/06 03:34:43;;;;;;;;;;;18.70;99.90;;;;;;5079005;28;19912;-78
2021/10/06 03:37:09;;;;;;;;;;;18.70;99.90;;;;;;5092197;28;19943;-78
2021/10/06 03:39:35;;;;;;;;;;;18.70;99.90;;;;;;5077268;28;19908;-78
2021/10/06 03:42:02;;;;;;;;;;;18.60;99.90;;;;;;5089980;28;19966;-77
2021/10/06 03:44:28;;;;;;;;;;;18.70;99.90;;;;;;5080009;28;19919;-78
2021/10/06 03:46:54;;;;;;;;;;;18.60;99.90;;;;;;5076425;28;19932;-77
2021/10/06 03:49:20;;;;;;;;;;;18.70;99.90;;;;;;5074759;28;19908;-77
2021/10/06 03:51:45;;;;;;;;;;;18.70;99.90;;;;;;5075874;28;19912;-77
2021/10/06 03:54:11;;;;;;;;;;;18.80;99.90;;;;;;5071284;28;19951;-77
2021/10/06 03:56:37;;;;;;;;;;;18.80;99.90;;;;;;5082276;28;19919;-77
2021/10/06 03:59:03;;;;;;;;;;;18.70;99.90;;;;;;5078148;28;20085;-77
2021/10/06 04:01:29;;;;;;;;;;;18.70;99.90;;;;;;5079419;28;19951;-77
2021/10/06 04:03:55;;;;;;;;;;;18.70;99.90;;;;;;5073933;28;19912;-77
2021/10/06 04:06:21;;;;;;;;;;;18.70;99.90;;;;;;5079227;28;19923;-77
2021/10/06 04:08:46;;;;;;;;;;;18.70;99.90;;;;;;5076882;28;20270;-77
2021/10/06 04:11:12;;;;;;;;;;;18.70;99.90;;;;;;5080530;28;19913;-77
2021/10/06 04:13:38;;;;;;;;;;;18.70;99.90;;;;;;5080269;28;19919;-77
2021/10/06 04:16:04;;;;;;;;;;;18.60;99.90;;;;;;5080480;28;19998;-77
2021/10/06 04:18:29;;;;;;;;;;;18.50;99.90;;;;;;5073458;28;19916;-77
2021/10/06 04:20:55;;;;;;;;;;;18.60;99.90;;;;;;5077248;28;20381;-77
2021/10/06 04:23:21;;;;;;;;;;;18.60;99.90;;;;;;5076795;28;19920;-77
2021/10/06 04:25:50;;;;;;;;;;;18.60;99.90;;;;;;5080404;28;20344;-77
2021/10/06 04:28:16;;;;;;;;;;;18.60;99.90;;;;;;5077139;28;19951;-77
2021/10/06 04:30:42;;;;;;;;;;;18.70;99.90;;;;;;5076125;28;19912;-77
2021/10/06 04:33:07;;;;;;;;;;;18.80;99.90;;;;;;5075896;28;19916;-77
2021/10/06 04:35:33;;;;;;;;;;;18.80;99.90;;;;;;5071704;28;19939;-77
2021/10/06 04:37:59;;;;;;;;;;;18.80;99.90;;;;;;5090810;28;19970;-78
2021/10/06 04:40:24;;;;;;;;;;;18.80;99.90;;;;;;5081727;28;19920;-77
2021/10/06 04:42:50;;;;;;;;;;;18.80;99.90;;;;;;5075203;28;19919;-77
2021/10/06 04:45:16;;;;;;;;;;;18.80;99.90;;;;;;5074668;28;20384;-77
2021/10/06 04:47:42;;;;;;;;;;;18.80;99.90;;;;;;5072003;28;19917;-77
2021/10/06 04:50:11;;;;;;;;;;;18.80;99.90;;;;;;5072456;28;19989;-77
2021/10/06 04:52:39;;;;;;;;;;;18.90;99.90;;;;;;5076435;28;19915;-77
2021/10/06 04:55:06;;;;;;;;;;;18.90;99.90;;;;;;5079558;28;19917;-77
2021/10/06 04:57:31;;;;;;;;;;;18.90;99.90;;;;;;5080546;28;20403;-77
2021/10/06 04:59:57;;;;;;;;;;;18.80;99.90;;;;;;5074445;28;19909;-78
2021/10/06 05:02:23;;;;;;;;;;;18.80;99.90;;;;;;5065497;28;20336;-77
2021/10/06 05:04:51;;;;;;;;;;;18.80;99.90;;;;;;5072157;28;19920;-77
2021/10/06 05:07:16;;;;;;;;;;;18.80;99.90;;;;;;5069397;28;19977;-77
2021/10/06 05:09:42;;;;;;;;;;;18.80;99.90;;;;;;5074248;28;20425;-78
2021/10/06 05:12:08;;;;;;;;;;;18.80;99.90;;;;;;5073815;28;19932;-77
2021/10/06 05:14:34;;;;;;;;;;;18.80;99.90;;;;;;5077304;28;19913;-77
2021/10/06 05:17:00;;;;;;;;;;;18.80;99.90;;;;;;5077891;28;19959;-77
2021/10/06 05:19:25;;;;;;;;;;;18.70;99.90;;;;;;5076930;28;20362;-77
2021/10/06 05:21:51;;;;;;;;;;;18.70;99.90;;;;;;5078202;28;19912;-77
2021/10/06 05:24:17;;;;;;;;;;;18.60;99.90;;;;;;5077768;28;19931;-77
2021/10/06 05:26:42;;;;;;;;;;;18.50;99.90;;;;;;5073938;28;19931;-77
2021/10/06 05:29:08;;;;;;;;;;;18.50;99.90;;;;;;5075548;28;20396;-77
2021/10/06 05:31:34;;;;;;;;;;;18.60;99.90;;;;;;5079180;28;20462;-78
2021/10/06 05:34:00;;;;;;;;;;;18.50;99.90;;;;;;5080301;28;19916;-77
2021/10/06 05:36:25;;;;;;;;;;;18.60;99.90;;;;;;5072291;28;19943;-78
2021/10/06 05:38:51;;;;;;;;;;;18.60;99.90;;;;;;5074938;28;20361;-77
2021/10/06 05:41:17;;;;;;;;;;;18.70;99.90;;;;;;5075084;28;19909;-77
2021/10/06 05:43:43;;;;;;;;;;;18.60;99.90;;;;;;5076823;28;19916;-77
2021/10/06 05:46:09;;;;;;;;;;;18.60;99.90;;;;;;5073672;28;20331;-77
2021/10/06 05:48:34;;;;;;;;;;;18.70;99.90;;;;;;5073000;28;19913;-77
2021/10/06 05:51:00;;;;;;;;;;;18.60;99.90;;;;;;5074315;28;19908;-77
2021/10/06 05:53:26;;;;;;;;;;;18.70;99.90;;;;;;5077494;28;19912;-77
2021/10/06 05:55:52;;;;;;;;;;;18.60;99.90;;;;;;5073409;28;19912;-77
2021/10/06 05:58:27;;;;;;;;;;;18.60;99.90;;;;;;5073994;28;20006;-77
2021/10/06 06:00:53;;;;;;;;;;;18.60;99.90;;;;;;5075637;28;19939;-77
2021/10/06 06:03:18;;;;;;;;;;;18.60;99.90;;;;;;5076857;28;19912;-77
2021/10/06 06:05:44;;;;;;;;;;;18.50;99.90;;;;;;5071909;28;20017;-77
2021/10/06 06:08:10;;;;;;;;;;;18.20;99.90;;;;;;5072833;28;19939;-77
2021/10/06 06:10:35;;;;;;;;;;;18.00;99.90;;;;;;5074376;28;19972;-77
2021/10/06 06:13:01;;;;;;;;;;;17.90;99.90;;;;;;5064475;28;19930;-76
2021/10/06 06:15:27;;;;;;;;;;;17.90;99.90;;;;;;5075481;28;19908;-77
2021/10/06 06:17:53;;;;;;;;;;;17.90;99.90;;;;;;5076017;28;19920;-77
2021/10/06 06:20:23;;;;;;;;;;;18.00;99.90;;;;;;5078080;28;20551;-77
2021/10/06 06:22:52;;;;;;;;;;;18.00;99.90;;;;;;5076148;28;19922;-77
2021/10/06 06:25:18;;;;;;;;;;;18.00;99.90;;;;;;5080427;28;19916;-77
2021/10/06 06:27:44;;;;;;;;;;;18.00;99.90;;;;;;5072687;28;19952;-77
2021/10/06 06:30:10;;;;;;;;;;;18.00;99.90;;;;;;5080921;28;19913;-78
2021/10/06 06:32:37;;;;;;;;;;;18.00;99.90;;;;;;5083180;28;20271;-77
2021/10/06 06:35:03;;;;;;;;;;;18.00;99.90;;;;;;5073906;28;19920;-77
2021/10/06 06:37:29;;;;;;;;;;;18.00;99.90;;;;;;5072305;28;19935;-77
2021/10/06 06:39:57;;;;;;;;;;;18.00;99.90;;;;;;5079078;28;19913;-78
2021/10/06 06:42:23;;;;;;;;;;;18.00;99.90;;;;;;5074429;28;19909;-78
2021/10/06 06:44:49;;;;;;;;;;;18.10;99.90;;;;;;5073201;28;19913;-78
2021/10/06 06:47:25;;;;;;;;;;;18.20;99.90;;;;;;5074649;28;19919;-78
2021/10/06 06:49:51;;;;;;;;;;;18.20;99.90;;;;;;5078130;28;20270;-77
2021/10/06 06:52:16;;;;;;;;;;;18.30;99.90;;;;;;5082806;28;19966;-77
2021/10/06 06:54:42;;;;;;;;;;;18.50;99.90;;;;;;5078245;28;19913;-77
2021/10/06 06:57:09;;;;;;;;;;;18.80;99.90;;;;;;5076509;28;19920;-77
2021/10/06 06:59:34;;;;;;;;;;;19.10;99.90;;;;;;5084428;28;20003;-78
2021/10/06 07:02:00;;;;;;;;;;;19.30;99.90;;;;;;5078694;28;20361;-77
2021/10/06 07:04:26;;;;;;;;;;;19.60;99.90;;;;;;5075573;28;20000;-79
2021/10/06 07:06:57;;;;;;;;;;;19.70;99.90;;;;;;5075005;28;19920;-78
2021/10/06 07:09:26;;;;;;;;;;;19.70;99.90;;;;;;5069504;28;19913;-78
2021/10/06 07:11:52;;;;;;;;;;;19.70;99.90;;;;;;5072609;28;19994;-78
2021/10/06 07:14:18;;;;;;;;;;;19.70;99.90;;;;;;5072047;28;19915;-78
2021/10/06 07:16:44;;;;;;;;;;;19.70;99.90;;;;;;5066783;28;19912;-78
2021/10/06 07:19:12;;;;;;;;;;;19.80;99.90;;;;;;5076417;28;19960;-78
2021/10/06 07:21:38;;;;;;;;;;;19.90;99.90;;;;;;5077385;28;19959;-78
2021/10/06 07:24:04;;;;;;;;;;;20.00;99.90;;;;;;5076832;28;19917;-78
2021/10/06 07:26:29;;;;;;;;;;;20.00;99.90;;;;;;5076256;28;19916;-78
2021/10/06 07:28:55;;;;;;;;;;;20.10;99.90;;;;;;5075776;28;19909;-78
2021/10/06 07:31:21;;;;;;;;;;;20.10;99.90;;;;;;5071907;28;20009;-78
2021/10/06 07:33:50;;;;;;;;;;;20.00;99.90;;;;;;5073132;28;19909;-78
2021/10/06 07:36:16;;;;;;;;;;;19.90;99.90;;;;;;5075933;28;19961;-78
2021/10/06 07:38:41;;;;;;;;;;;19.90;99.90;;;;;;5077175;28;19979;-78
2021/10/06 07:41:08;;;;;;;;;;;20.00;99.90;;;;;;5077278;28;20003;-78
2021/10/06 07:43:33;;;;;;;;;;;20.00;99.90;;;;;;5071584;28;19917;-78
2021/10/06 07:46:02;;;;;;;;;;;20.10;99.90;;;;;;5077143;28;19919;-78
2021/10/06 07:48:27;;;;;;;;;;;20.10;99.90;;;;;;5091088;28;19912;-74
2021/10/06 07:50:53;;;;;;;;;;;20.10;99.90;;;;;;5076109;28;19962;-74
2021/10/06 07:53:19;;;;;;;;;;;20.10;99.90;;;;;;5075901;28;19995;-73
2021/10/06 07:55:44;;;;;;;;;;;20.30;99.90;;;;;;5071049;28;19912;-73
2021/10/06 07:58:10;;;;;;;;;;;20.20;99.90;;;;;;5055418;28;19913;-73
2021/10/06 08:00:36;;;;;;;;;;;20.10;99.90;;;;;;5062015;28;19955;-73
2021/10/06 08:03:01;;;;;;;;;;;20.00;99.90;;;;;;5065338;28;19912;-73
2021/10/06 08:05:27;;;;;;;;;;;20.00;99.90;;;;;;5073982;28;20360;-72
2021/10/06 08:07:53;;;;;;;;;;;19.90;99.90;;;;;;5069509;28;19923;-74
2021/10/06 08:10:19;;;;;;;;;;;19.80;99.90;;;;;;5076278;28;20002;-74
2021/10/06 08:12:44;;;;;;;;;;;19.80;99.90;;;;;;5070544;28;19917;-73
2021/10/06 08:15:13;;;;;;;;;;;19.80;99.90;;;;;;5061613;28;19916;-74
2021/10/06 08:17:39;;;;;;;;;;;19.90;99.90;;;;;;5075510;28;19912;-73
2021/10/06 08:20:05;;;;;;;;;;;19.90;99.90;;;;;;5074828;28;19915;-73
2021/10/06 08:22:30;;;;;;;;;;;20.10;99.90;;;;;;5072470;28;19912;-73
2021/10/06 08:24:56;;;;;;;;;;;20.20;99.90;;;;;;5074273;28;19928;-74
2021/10/06 08:27:21;;;;;;;;;;;20.30;99.90;;;;;;5079009;28;19974;-74
2021/10/06 08:29:47;;;;;;;;;;;20.20;99.90;;;;;;5053799;28;19931;-72
2021/10/06 08:32:13;;;;;;;;;;;20.20;99.90;;;;;;5053983;28;20063;-73
2021/10/06 08:34:38;;;;;;;;;;;20.20;99.90;;;;;;5072750;28;20247;-73
2021/10/06 08:37:04;;;;;;;;;;;20.20;99.90;;;;;;5075016;28;20293;-75
2021/10/06 08:39:30;;;;;;;;;;;20.10;99.90;;;;;;5074809;28;19962;-73
2021/10/06 08:41:56;;;;;;;;;;;20.20;99.90;;;;;;5072751;28;20733;-74
2021/10/06 08:44:22;;;;;;;;;;;20.20;99.90;;;;;;5077561;28;19970;-73
2021/10/06 08:46:48;;;;;;;;;;;20.40;99.90;;;;;;5062122;28;19924;-74
2021/10/06 08:49:14;;;;;;;;;;;20.50;99.90;;;;;;5062137;28;20300;-74
2021/10/06 08:51:39;;;;;;;;;;;20.70;99.90;;;;;;5063970;28;19982;-74
2021/10/06 08:54:06;;;;;;;;;;;20.70;99.90;;;;;;5074374;28;19909;-75
2021/10/06 08:56:32;;;;;;;;;;;20.50;99.90;;;;;;5075448;28;20274;-74
2021/10/06 08:58:57;;;;;;;;;;;20.40;99.90;;;;;;5062666;28;19919;-75
2021/10/06 09:01:27;;;;;;;;;;;20.50;99.90;;;;;;5077631;28;20011;-74
2021/10/06 09:03:55;;;;;;;;;;;20.50;99.90;;;;;;5079299;28;19908;-74
2021/10/06 09:06:20;;;;;;;;;;;20.50;99.90;;;;;;5079538;28;19919;-72
2021/10/06 09:08:46;;;;;;;;;;;20.60;99.90;;;;;;5077665;28;20138;-75
2021/10/06 09:11:13;;;;;;;;;;;20.60;99.90;;;;;;5079033;28;20305;-74
2021/10/06 09:13:41;;;;;;;;;;;20.50;99.90;;;;;;5076984;28;19908;-73
2021/10/06 09:16:06;;;;;;;;;;;20.50;99.90;;;;;;5074459;28;20277;-73
2021/10/06 09:18:33;;;;;;;;;;;20.60;99.90;;;;;;5061244;28;19941;-75
2021/10/06 09:21:02;;;;;;;;;;;20.80;99.90;;;;;;5054374;28;19916;-74
2021/10/06 09:23:30;;;;;;;;;;;20.70;99.90;;;;;;5054138;28;20000;-73
2021/10/06 09:26:00;;;;;;;;;;;20.60;99.90;;;;;;5067191;28;19913;-75
2021/10/06 09:28:30;;;;;;;;;;;20.70;99.90;;;;;;5074057;28;19919;-75
2021/10/06 09:30:59;;;;;;;;;;;20.80;99.90;;;;;;5074547;28;20313;-73
2021/10/06 09:33:36;;;;;;;;;;;20.80;99.90;;;;;;5074070;28;19912;-73
2021/10/06 09:36:09;;;;;;;;;;;20.80;99.90;;;;;;5073339;28;20334;-74
2021/10/06 09:38:41;;;;;;;;;;;20.80;99.90;;;;;;5075134;28;19969;-74
2021/10/06 09:41:25;;;;;;;;;;;20.80;99.90;;;;;;5075528;28;19951;-74
2021/10/06 09:44:03;;;;;;;;;;;20.80;99.90;;;;;;5075027;28;19909;-74
2021/10/06 09:46:49;;;;;;;;;;;21.00;99.90;;;;;;5070850;28;19916;-76
2021/10/06 09:49:22;;;;;;;;;;;21.00;99.90;;;;;;5073445;28;20366;-76
2021/10/06 09:51:48;;;;;;;;;;;21.00;99.90;;;;;;5074538;28;19915;-73
2021/10/06 09:54:13;;;;;;;;;;;21.10;99.90;;;;;;5072614;28;20267;-74
2021/10/06 09:56:43;;;;;;;;;;;21.10;99.90;;;;;;5067080;28;19962;-75
2021/10/06 09:59:10;;;;;;;;;;;21.20;99.90;;;;;;5058024;28;19913;-77
2021/10/06 10:01:39;;;;;;;;;;;21.30;99.90;;;;;;5073708;28;19908;-74
2021/10/06 10:04:09;;;;;;;;;;;21.40;99.90;;;;;;5071978;28;20359;-76
2021/10/06 10:06:34;;;;;;;;;;;21.60;99.90;;;;;;5071574;28;19916;-73
2021/10/06 10:09:05;;;;;;;;;;;21.60;99.90;;;;;;5056186;28;19919;-73
2021/10/06 10:11:32;;;;;;;;;;;22.00;99.90;;;;;;5069236;28;20007;-74
2021/10/06 10:13:58;;;;;;;;;;;22.50;99.90;;;;;;5072469;28;19999;-74
2021/10/06 10:16:24;;;;;;;;;;;22.90;99.90;;;;;;5072943;28;20362;-74
2021/10/06 10:18:50;;;;;;;;;;;23.30;99.90;;;;;;5067196;28;19913;-74
2021/10/06 10:21:16;;;;;;;;;;;23.50;99.90;;;;;;5069494;28;19970;-76
2021/10/06 10:23:42;;;;;;;;;;;23.50;99.90;;;;;;5076742;28;19974;-77
2021/10/06 10:26:20;;;;;;;;;;;23.20;99.90;;;;;;5077821;28;19915;-77
2021/10/06 10:28:46;;;;;;;;;;;22.80;99.90;;;;;;5076085;28;20442;-74
2021/10/06 10:31:15;;;;;;;;;;;22.70;99.90;;;;;;5062763;28;20015;-75
2021/10/06 10:33:43;;;;;;;;;;;23.10;99.90;;;;;;5057407;28;19916;-75
2021/10/06 10:36:27;;;;;;;;;;;23.50;99.90;;;;;;5057389;28;19912;-73
2021/10/06 10:38:53;;;;;;;;;;;23.30;99.90;;;;;;5070286;28;20289;-73
2021/10/06 10:41:37;;;;;;;;;;;22.80;99.90;;;;;;5076659;28;19912;-75
2021/10/06 10:44:05;;;;;;;;;;;22.70;99.90;;;;;;5077224;28;20442;-75
2021/10/06 10:46:50;;;;;;;;;;;22.70;99.90;;;;;;5076969;28;20537;-74
2021/10/06 10:49:16;;;;;;;;;;;22.30;99.90;;;;;;5075141;28;20453;-73
2021/10/06 10:51:52;;;;;;;;;;;22.00;99.90;;;;;;5061487;28;19920;-73
2021/10/06 10:54:30;;;;;;;;;;;21.90;99.90;;;;;;5076903;28;20269;-74
2021/10/06 10:56:56;;;;;;;;;;;21.90;99.90;;;;;;5076707;28;19912;-74
2021/10/06 10:59:25;;;;;;;;;;;21.80;99.90;;;;;;5076799;28;19908;-75
2021/10/06 11:01:53;;;;;;;;;;;21.60;99.90;;;;;;5073598;28;19914;-75
2021/10/06 11:04:20;;;;;;;;;;;21.50;99.90;;;;;;5056983;28;20406;-73
2021/10/06 11:06:48;;;;;;;;;;;21.40;99.90;;;;;;5068920;28;20353;-74
2021/10/06 11:09:43;;;;;;;;;;;21.10;99.90;;;;;;5074643;28;19912;-74
2021/10/06 11:12:11;;;;;;;;;;;21.00;99.90;;;;;;5079353;28;19912;-74
2021/10/06 11:14:38;;;;;;;;;;;21.00;99.90;;;;;;5076900;28;20423;-74
2021/10/06 11:17:06;;;;;;;;;;;20.90;99.90;;;;;;5076641;28;19954;-74
2021/10/06 11:19:44;;;;;;;;;;;20.80;99.90;;;;;;5076592;28;20371;-74
2021/10/06 11:22:21;;;;;;;;;;;20.70;99.90;;;;;;5072484;28;20394;-74
2021/10/06 11:24:53;;;;;;;;;;;20.60;99.90;;;;;;5056523;28;20003;-76
2021/10/06 11:27:19;;;;;;;;;;;20.40;99.90;;;;;;5056021;28;19913;-76
2021/10/06 11:29:53;;;;;;;;;;;20.30;99.90;;;;;;5056625;28;20596;-76
2021/10/06 11:32:19;;;;;;;;;;;20.10;99.90;;;;;;5056598;28;20067;-73
2021/10/06 11:34:44;;;;;;;;;;;19.80;99.90;;;;;;5054449;28;19958;-73
2021/10/06 11:37:17;;;;;;;;;;;19.60;99.90;;;;;;5054982;28;20071;-74
2021/10/06 11:39:43;;;;;;;;;;;19.30;99.90;;;;;;5067160;28;19912;-73
2021/10/06 11:42:09;;;;;;;;;;;19.00;99.90;;;;;;5075620;28;19913;-74
2021/10/06 11:44:35;;;;;;;;;;;18.70;99.90;;;;;;5076722;28;19915;-73
2021/10/06 11:47:14;;;;;;;8.82;3.47;;;18.30;99.90;;;;;;5074436;28;20407;-74
2021/10/06 11:49:45;;;;;;;8.57;2.50;;;17.90;99.90;;;;;;5075897;28;20036;-77
2021/10/06 11:52:13;;;;;;;8.18;2.47;;;17.70;99.90;;;;;;5075505;28;20021;-74
2021/10/06 11:54:39;;;;;;;18.50;2.88;;;17.50;99.90;;;;;;5075616;28;20074;-74
2021/10/06 11:57:09;;;;;;;17.77;4.63;;;17.30;99.90;;;;;;5074735;28;20080;-73
2021/10/06 11:59:36;;;;;;;12.60;4.22;;;17.10;99.90;;;;;;5075208;28;20020;-75
2021/10/06 12:02:29;;;;;;;15.52;4.40;;;16.90;99.90;;;;;;5065216;28;20036;-73
2021/10/06 12:04:57;;;;;;;38.47;7.32;;;16.90;99.90;;;;;;5069236;28;20107;-74
2021/10/06 12:07:24;;;;;;;22.92;5.05;;;16.90;99.90;;;;;;5060574;28;20501;-75
2021/10/06 12:09:52;;;;;;;38.45;4.93;;;16.90;99.90;;;;;;5071629;28;20202;-73
2021/10/06 12:12:31;;;;;;;51.65;8.02;;;16.60;99.90;;;;;;5073054;28;20104;-74
2021/10/06 12:15:09;;;;;;;21.80;4.25;;;16.20;99.90;;;;;;5075573;28;20025;-73
2021/10/06 12:17:39;;;;;;;13.45;2.75;;;16.00;99.90;;;;;;5075122;28;20088;-74
2021/10/06 12:20:12;;;;;;;6.28;2.25;;;15.80;99.90;;;;;;5064638;28;20072;-74
2021/10/06 12:22:56;;;;;;;5.60;1.90;;;15.80;99.90;;;;;;5058075;28;20036;-74
2021/10/06 12:25:24;;;;;;;2.53;1.60;;;15.70;99.90;;;;;;5063762;28;20028;-72
2021/10/06 12:27:52;;;;;;;6.40;1.73;;;15.60;99.90;;;;;;5074292;28;20020;-74
2021/10/06 12:30:27;;;;;;;1.30;1.20;;;15.60;99.90;;;;;;5075200;28;20574;-73
2021/10/06 12:33:16;;;;;;;1.63;1.30;;;15.70;99.90;;;;;;5066953;28;20044;-72
2021/10/06 12:35:48;;;;;;;2.22;1.00;;;15.70;99.90;;;;;;5055173;28;20051;-72
2021/10/06 12:38:15;;;;;;;1.98;1.00;;;15.80;99.90;;;;;;5055454;28;20029;-73
2021/10/06 12:40:49;;;;;;;1.08;0.90;;;15.80;99.90;;;;;;5065770;28;20107;-72
2021/10/06 12:43:28;;;;;;;5.50;1.38;;;16.00;99.90;;;;;;5074046;28;20036;-72
2021/10/06 12:46:09;;;;;;;10.57;3.05;;;16.00;99.90;;;;;;5074194;28;20024;-74
2021/10/06 12:48:36;;;;;;;8.18;3.05;;;16.20;99.90;;;;;;5074732;28;20053;-73
2021/10/06 12:51:02;;;;;;;8.38;2.08;;;16.30;99.90;;;;;;5074403;28;20095;-74
2021/10/06 12:53:28;;;;;;;5.07;2.67;;;16.30;99.90;;;;;;5061920;28;20025;-75
2021/10/06 12:55:54;;;;;;;3.78;2.05;;;16.40;99.90;;;;;;5069669;28;20124;-75
2021/10/06 12:58:20;;;;;;;5.72;1.80;;;16.50;99.90;;;;;;5068176;28;20125;-76
2021/10/06 13:00:46;;;;;;;6.93;2.05;;;16.50;99.90;;;;;;5073703;28;20032;-75
2021/10/06 13:03:12;;;;;;;3.35;1.55;;;16.50;99.90;;;;;;5059068;28;20052;-72
2021/10/06 13:05:38;;;;;;;3.67;1.13;;;16.50;99.90;;;;;;5054492;28;20025;-72
2021/10/06 13:08:17;;;;;;;3.53;1.55;;;16.40;99.90;;;;;;5058725;28;20104;-76
2021/10/06 13:10:44;;;;;;;4.40;1.15;;;16.30;99.90;;;;;;5072658;28;20107;-73
2021/10/06 13:13:13;;;;;;;2.95;1.52;;;16.30;99.90;;;;;;5073573;28;20084;-72
2021/10/06 13:15:39;;;;;;;6.97;1.33;;;16.40;99.90;;;;;;5073982;28;20047;-73
2021/10/06 13:18:05;;;;;;;5.00;1.15;;;16.40;99.90;;;;;;5072414;28;20448;-73
2021/10/06 13:20:31;;;;;;;2.47;1.00;;;16.40;99.90;;;;;;5062658;28;20033;-74
2021/10/06 13:22:56;;;;;;;2.40;1.02;;;16.30;99.90;;;;;;5053997;28;20214;-74
2021/10/06 13:25:22;;;;;;;2.35;1.05;;;16.30;99.90;;;;;;5053983;28;20092;-72
2021/10/06 13:27:48;;;;;;;9.73;1.52;;;16.30;99.90;;;;;;5067249;28;20025;-73
2021/10/06 13:30:15;;;;;;;8.00;2.40;;;16.30;99.90;;;;;;5053936;28;20021;-74
2021/10/06 13:32:41;;;;;;;7.75;2.20;;;16.40;99.90;;;;;;5053920;28;20104;-73
2021/10/06 13:35:08;;;;;;;2.88;2.00;;;16.30;99.90;;;;;;5069438;28;20021;-73
2021/10/06 13:37:33;;;;;;;3.30;1.48;;;16.40;99.90;;;;;;5053765;28;20028;-74
2021/10/06 13:39:59;;;;;;;3.35;1.08;;;16.20;99.90;;;;;;5062238;28;20035;-74
2021/10/06 13:42:28;;;;;;;2.83;1.50;;;16.10;99.90;;;;;;5069924;28;20027;-72
2021/10/06 13:44:54;;;;;;;3.33;1.70;;;16.20;99.90;;;;;;5073209;28;20027;-74
2021/10/06 13:47:20;;;;;;;2.67;1.30;;;16.20;99.90;;;;;;5072796;28;20032;-76
2021/10/06 13:49:46;;;;;;;3.90;2.63;;;16.20;99.90;;;;;;5073680;28;20020;-72
2021/10/06 13:52:12;;;;;;;1.67;1.55;;;16.10;99.90;;;;;;5070724;28;20028;-75
2021/10/06 13:54:37;;;;;;;5.70;1.60;;;16.20;99.90;;;;;;5083813;28;20023;-74
2021/10/06 13:57:03;;;;;;;7.00;1.42;;;16.30;99.90;;;;;;5066564;28;20573;-73
2021/10/06 13:59:29;;;;;;;4.20;1.17;;;16.10;99.90;;;;;;5073444;28;20108;-73
2021/10/06 14:01:55;;;;;;;4.53;2.58;;;16.00;99.90;;;;;;5073107;28;20025;-74
2021/10/06 14:04:21;;;;;;;3.80;1.20;;;16.00;99.90;;;;;;5078198;28;20024;-73